KFRG/FRG METAR and TAF weather

Enter ICAO airport designator
Station Type Date Time Source
KFRG METAR 2019/02/17 06:53 UTC NOAA

KFRG 170653Z AUTO 36011KT 10SM CLR M03/M10 A3005 RMK AO2 SLP175 T10281100


Station Type Date Time Source
KFRG Decoded METAR 2019/02/17 06:53 UTC NOAA

FARMINGDALE REPUBLIC AIRPORT , NY, United States (KFRG) 40-44N 073-25W 21M
Feb 17, 2019 - 01:53 AM EST / 2019.02.17 0653 UTC
Wind: from the N (360 degrees) at 13 MPH (11 KT):0
Visibility: 10 mile(s):0
Sky conditions: clear
Temperature: 27.0 F (-2.8 C)
Windchill: 15 F (-9 C):1
Dew Point: 14.0 F (-10.0 C)
Relative Humidity: 57%
Pressure (altimeter): 30.05 in. Hg (1017 hPa)
ob: KFRG 170653Z AUTO 36011KT 10SM CLR M03/M10 A3005 RMK AO2 SLP175 T10281100
cycle: 7

Station Type Date Time Source
KFRG TAF UTC NOAA

Error!


Example: see airport list